Time;durP1;ratioP1;P1;durP2;ratioP2;P2;SDS_P1;SDS_P2;PMS_P1;PMS_P2;Temp;Humidity;BMP_temperature;BMP_pressure;BME280_temperature;BME280_humidity;BME280_pressure;Samples;Min_cycle;Max_cycle;Signal;HPM_P1;HPM_P2
2021/10/18 00:02:12;;;;;;;27.20;16.40;;;;;;;6.21;72.87;99111.56;463435;1188;112089;-41
2021/10/18 00:12:20;;;;;;;28.50;14.40;;;;;;;6.33;72.94;99110.27;463163;1189;108655;-41
2021/10/18 00:22:27;;;;;;;38.00;18.70;;;;;;;6.43;73.06;99111.13;463303;1188;98019;-41
2021/10/18 00:32:35;;;;;;;36.60;21.40;;;;;;;6.43;73.09;99114.94;463164;1190;109616;-41
2021/10/18 00:42:43;;;;;;;33.90;18.80;;;;;;;6.37;73.24;99109.90;463087;1188;98625;-41
2021/10/18 00:52:51;;;;;;;39.80;22.30;;;;;;;6.38;73.51;99099.42;463387;1190;112053;-41
2021/10/18 01:03:00;;;;;;;34.00;18.10;;;;;;;6.42;73.31;99103.29;463335;1190;108972;-43
2021/10/18 01:13:08;;;;;;;32.90;17.80;;;;;;;6.55;73.43;99099.31;463264;1188;99023;-41
2021/10/18 01:23:16;;;;;;;33.70;18.80;;;;;;;6.73;73.58;99097.30;464031;1167;112086;-42
2021/10/18 01:33:24;;;;;;;39.00;20.10;;;;;;;6.82;73.58;99094.63;463119;1187;107773;-41
2021/10/18 01:43:31;;;;;;;35.40;20.90;;;;;;;6.72;73.52;99101.95;463416;1181;99002;-42
2021/10/18 01:53:39;;;;;;;40.30;22.40;;;;;;;6.63;73.60;99094.29;463453;1187;108466;-42
2021/10/18 02:03:46;;;;;;;45.30;22.40;;;;;;;6.60;73.73;99100.06;463292;1187;99697;-41
2021/10/18 02:13:53;;;;;;;31.00;17.40;;;;;;;6.63;73.84;99106.17;463209;1187;111172;-41
2021/10/18 02:24:01;;;;;;;29.30;16.90;;;;;;;6.72;74.05;99109.14;463256;1187;108506;-41
2021/10/18 02:34:09;;;;;;;45.90;23.90;;;;;;;6.80;74.33;99102.46;463335;1187;99034;-41
2021/10/18 02:44:16;;;;;;;41.60;22.20;;;;;;;6.78;74.47;99105.25;463416;1190;108537;-42
2021/10/18 02:54:23;;;;;;;84.20;34.10;;;;;;;6.68;74.52;99104.66;463306;1190;99028;-42
2021/10/18 03:04:30;;;;;;;69.10;31.20;;;;;;;6.60;74.71;99106.14;463410;1187;112203;-42
2021/10/18 03:24:44;;;;;;;55.40;27.50;;;;;;;6.64;75.22;99112.60;463469;1187;97713;-41
2021/10/18 03:34:51;;;;;;;45.30;22.30;;;;;;;6.70;75.24;99116.84;463435;1187;108712;-41
2021/10/18 03:44:58;;;;;;;58.00;31.80;;;;;;;6.67;75.69;99120.52;463430;1187;99009;-41
2021/10/18 03:55:07;;;;;;;50.70;27.40;;;;;;;6.63;75.80;99123.55;463354;1187;112234;-41
2021/10/18 04:05:14;;;;;;;30.10;19.10;;;;;;;6.55;75.98;99129.72;463485;1187;108667;-41
2021/10/18 04:15:22;;;;;;;81.30;35.60;;;;;;;6.62;76.31;99132.89;463265;1188;98562;-41
2021/10/18 04:25:31;;;;;;;68.50;31.20;;;;;;;6.71;76.53;99144.23;463600;1187;108455;-41
2021/10/18 04:35:39;;;;;;;52.70;28.10;;;;;;;6.85;76.87;99150.38;463455;1193;99021;-41
2021/10/18 04:45:46;;;;;;;63.00;30.50;;;;;;;6.87;76.85;99149.75;463356;1187;112060;-41
2021/10/18 04:55:53;;;;;;;50.80;27.50;;;;;;;6.94;77.23;99154.93;463243;1187;108461;-41
2021/10/18 05:06:01;;;;;;;82.90;40.00;;;;;;;7.00;77.21;99165.08;463300;1190;99015;-41
2021/10/18 05:16:09;;;;;;;49.00;25.30;;;;;;;7.01;77.54;99179.80;463266;1187;108655;-41
2021/10/18 05:26:17;;;;;;;67.40;33.40;;;;;;;7.07;77.60;99195.81;463443;1187;97727;-41
2021/10/18 05:36:24;;;;;;;45.70;26.80;;;;;;;7.13;77.91;99210.64;463226;1190;111400;-42
2021/10/18 05:46:31;;;;;;;32.70;20.50;;;;;;;7.16;77.97;99223.36;463141;1190;108454;-41
2021/10/18 05:56:39;;;;;;;61.50;31.80;;;;;;;7.31;78.27;99231.45;463479;1187;98999;-40
2021/10/18 06:06:46;;;;;;;77.80;36.50;;;;;;;7.49;78.43;99240.81;463226;1187;108580;-41
2021/10/18 06:16:53;;;;;;;73.90;36.10;;;;;;;7.53;78.38;99255.52;463320;1187;99003;-41
2021/10/18 06:27:01;;;;;;;34.40;21.70;;;;;;;7.51;78.70;99265.91;463518;1187;112120;-40
2021/10/18 06:37:08;;;;;;;30.70;19.10;;;;;;;7.50;78.67;99281.70;463307;1187;108544;-41
2021/10/18 06:57:35;;;;;;;36.40;19.80;;;;;;;7.64;79.10;99304.79;463253;1173;111978;-41
2021/10/18 07:07:43;;;;;;;30.80;17.50;;;;;;;7.86;79.24;99319.86;463551;1188;108176;-41
2021/10/18 07:17:51;;;;;;;22.40;14.60;;;;;;;7.94;79.30;99330.38;463276;1188;98035;-42
2021/10/18 07:27:59;;;;;;;28.00;15.30;;;;;;;8.09;79.48;99335.19;463444;1190;109061;-40
2021/10/18 07:38:09;;;;;;;27.50;17.00;;;;;;;8.18;79.44;99345.80;463547;1188;98061;-41
2021/10/18 07:48:16;;;;;;;32.20;19.30;;;;;;;8.23;79.63;99348.70;463267;1190;112619;-42
2021/10/18 07:58:24;;;;;;;30.30;17.10;;;;;;;8.22;79.92;99349.98;463503;1190;108671;-41
2021/10/18 08:28:45;;;;;;;40.60;23.30;;;;;;;8.60;80.43;99358.27;463174;1189;99146;-41
2021/10/18 08:48:59;;;;;;;29.10;18.00;;;;;;;8.72;80.49;99376.83;463034;1190;109413;-41
2021/10/18 08:59:06;;;;;;;;;;;;;;;8.71;80.54;99388.86;463187;1190;99712;-40
2021/10/18 09:19:24;;;;;;;34.00;19.20;;;;;;;8.79;80.60;99411.99;463541;1190;99005;-41
2021/10/18 09:29:35;;;;;;;22.00;14.90;;;;;;;8.81;80.84;99407.04;463395;1189;112702;-42
2021/10/18 09:39:43;;;;;;;33.00;17.90;;;;;;;8.85;80.70;99415.85;463195;1190;108480;-40
2021/10/18 10:52:58;;;;;;;59.40;31.00;;;;;;;9.27;81.71;99413.73;463100;1190;108631;-41
2021/10/18 11:03:40;;;;;;;38.50;22.80;;;;;;;9.60;81.60;99410.88;463243;1190;97694;-41
2021/10/18 11:13:46;;;;;;;31.50;18.20;;;;;;;9.67;81.42;99412.22;463369;1190;112182;-41
2021/10/18 11:23:55;;;;;;;36.90;21.20;;;;;;;9.57;81.48;99410.52;463306;1190;108394;-40
2021/10/18 11:34:07;;;;;;;31.70;19.90;;;;;;;9.59;81.57;99407.02;463533;1189;99012;-42
2021/10/18 11:44:14;;;;;;;35.60;21.10;;;;;;;9.57;81.62;99417.96;463281;1189;108635;-41
2021/10/18 11:54:22;;;;;;;35.40;21.60;;;;;;;9.64;81.55;99412.83;463073;1190;98018;-41
2021/10/18 12:04:29;;;;;;;73.50;37.70;;;;;;;9.58;81.63;99415.40;463199;1188;112120;-42
2021/10/18 12:14:36;;;;;;;79.30;39.50;;;;;;;9.48;81.67;99415.21;463176;1188;108115;-41
2021/10/18 12:24:43;;;;;;;77.00;37.30;;;;;;;9.52;81.76;99416.39;463161;1190;99549;-42
2021/10/18 12:35:02;;;;;;;53.30;29.50;;;;;;;9.56;81.79;99414.75;463225;1190;108436;-43
2021/10/18 12:45:10;;;;;;;47.30;29.00;;;;;;;9.65;81.76;99414.02;462977;1190;98571;-41
2021/10/18 12:55:20;;;;;;;38.90;22.40;;;;;;;9.53;81.77;99419.55;463377;1189;112264;-40
2021/10/18 13:05:29;;;;;;;55.30;33.10;;;;;;;9.36;81.89;99421.45;463174;1190;108503;-42
2021/10/18 13:15:37;;;;;;;51.10;30.00;;;;;;;9.49;82.04;99421.30;463014;1190;97634;-41
2021/10/18 13:25:46;;;;;;;51.40;30.50;;;;;;;9.81;82.10;99421.77;463195;1189;109185;-41
2021/10/18 13:35:54;;;;;;;64.40;37.00;;;;;;;9.89;82.07;99415.41;463032;1190;99012;-41
2021/10/18 13:46:00;;;;;;;70.60;43.80;;;;;;;9.78;81.87;99418.31;463348;1188;110959;-41
2021/10/18 13:56:05;;;;;;;62.00;34.80;;;;;;;9.72;81.88;99424.42;463118;1190;108443;-41
2021/10/18 14:16:18;;;;;;;46.90;28.70;;;;;;;9.75;81.80;99439.94;462963;1189;108848;-41
2021/10/18 14:26:26;;;;;;;148.30;68.90;;;;;;;9.73;81.85;99436.77;463169;1190;99139;-41
2021/10/18 14:36:34;;;;;;;41.00;23.60;;;;;;;9.75;81.63;99439.86;463048;1190;112250;-40
2021/10/18 14:46:42;;;;;;;52.60;32.20;;;;;;;9.78;81.75;99444.16;463289;1189;108055;-41
2021/10/18 14:56:50;;;;;;;63.30;34.70;;;;;;;9.76;81.71;99442.79;463151;1190;99006;-41
2021/10/18 15:06:59;;;;;;;50.00;29.70;;;;;;;9.73;81.79;99444.69;463311;1189;112181;-41
2021/10/18 15:27:14;;;;;;;61.20;31.20;;;;;;;9.61;81.48;99449.67;463392;1189;99025;-42
2021/10/18 15:37:20;;;;;;;45.00;24.80;;;;;;;9.63;81.54;99454.31;463060;1190;108706;-41
2021/10/18 15:47:26;;;;;;;62.60;34.60;;;;;;;9.62;81.41;99453.38;463101;1190;99004;-41
2021/10/18 15:57:33;;;;;;;44.50;27.90;;;;;;;9.60;81.50;99457.68;463295;1190;112034;-41
2021/10/18 16:17:48;;;;;;;47.10;26.10;;;;;;;9.43;81.50;99469.11;463252;1189;99104;-41
2021/10/18 16:27:56;;;;;;;32.50;19.00;;;;;;;9.41;81.47;99473.42;463333;1189;112200;-40
2021/10/18 16:38:03;;;;;;;36.10;22.30;;;;;;;9.39;81.43;99472.58;463255;1189;108689;-41
2021/10/18 16:48:10;;;;;;;55.10;29.90;;;;;;;9.39;81.35;99473.18;463240;1189;98594;-41
2021/10/18 16:58:18;;;;;;;43.40;25.00;;;;;;;9.34;81.35;99471.77;463150;1188;108196;-41
2021/10/18 17:18:34;;;;;;;62.30;33.20;;;;;;;9.20;81.34;99474.05;463074;1188;112138;-42
2021/10/18 17:28:41;;;;;;;72.70;43.10;;;;;;;9.04;81.44;99476.86;463521;1188;108414;-42
2021/10/18 17:38:50;;;;;;;58.60;34.20;;;;;;;9.01;81.42;99480.45;463118;1190;98625;-41
2021/10/18 17:49:01;;;;;;;52.90;30.70;;;;;;;8.99;81.40;99481.95;462945;1188;107445;-42
2021/10/18 18:09:16;;;;;;;47.40;27.60;;;;;;;9.03;81.62;99472.92;463289;1188;112308;-41
2021/10/18 18:19:26;;;;;;;45.70;27.70;;;;;;;9.06;81.52;99475.92;463271;1189;109450;-41
2021/10/18 18:29:34;;;;;;;44.30;24.10;;;;;;;9.09;81.70;99493.52;463461;1174;97714;-41
2021/10/18 18:39:41;;;;;;;46.50;22.80;;;;;;;9.09;81.54;99507.91;463133;1189;107954;-41
2021/10/18 18:49:49;;;;;;;44.10;26.80;;;;;;;8.98;81.54;99510.31;463350;1190;98597;-41
2021/10/18 19:10:04;;;;;;;47.30;26.20;;;;;;;8.45;81.47;99507.95;463240;1189;108746;-41
2021/10/18 19:20:13;;;;;;;47.10;26.00;;;;;;;8.32;81.49;99515.29;463460;1190;98594;-41
2021/10/18 19:40:27;;;;;;;44.70;26.40;;;;;;;8.11;81.65;99516.35;463192;1190;99006;-43
2021/10/18 19:50:33;;;;;;;50.10;28.00;;;;;;;8.16;81.92;99517.03;463046;1189;112480;-40
2021/10/18 20:00:43;;;;;;;44.90;25.60;;;;;;;8.25;81.90;99519.19;463490;1190;108563;-44
2021/10/18 20:10:51;;;;;;;43.50;25.10;;;;;;;8.30;82.07;99506.22;463183;1190;99005;-42
2021/10/18 20:20:58;;;;;;;42.10;24.20;;;;;;;8.36;81.88;99509.23;463338;1188;108485;-41
2021/10/18 20:31:06;;;;;;;45.40;26.40;;;;;;;8.33;81.97;99519.42;462617;1189;97761;-42
2021/10/18 20:41:13;;;;;;;47.10;26.20;;;;;;;8.28;81.89;99522.42;463187;1189;111181;-41
2021/10/18 20:51:20;;;;;;;37.30;23.30;;;;;;;8.08;81.91;99524.30;462890;1189;108287;-41
2021/10/18 21:01:26;;;;;;;39.80;21.70;;;;;;;7.95;81.82;99519.52;463240;1189;99117;-41
2021/10/18 21:11:33;;;;;;;34.80;20.50;;;;;;;7.88;81.83;99519.81;463268;1190;107755;-41
2021/10/18 21:21:40;;;;;;;36.70;21.50;;;;;;;7.89;81.89;99530.23;463251;1190;98051;-41
2021/10/18 21:31:48;;;;;;;37.50;20.60;;;;;;;7.90;81.97;99527.89;463286;1188;111923;-41
2021/10/18 21:41:55;;;;;;;35.10;23.00;;;;;;;7.92;81.96;99544.88;463199;1190;108514;-41
2021/10/18 21:52:03;;;;;;;46.40;25.50;;;;;;;7.79;81.86;99541.24;462514;1189;99172;-41
2021/10/18 22:02:11;;;;;;;49.70;26.50;;;;;;;7.65;81.96;99530.20;463032;1190;111653;-41
2021/10/18 22:12:18;;;;;;;47.70;25.70;;;;;;;7.58;82.00;99532.67;463321;1190;108615;-41
2021/10/18 22:22:26;;;;;;;43.50;25.00;;;;;;;7.57;81.97;99541.81;463089;1190;97672;-41
2021/10/18 22:32:34;;;;;;;43.30;24.50;;;;;;;7.54;81.99;99542.46;462966;1190;112284;-41
2021/10/18 22:52:48;;;;;;;40.20;25.30;;;;;;;7.66;82.26;99520.40;463223;1188;99012;-40
2021/10/18 23:02:58;;;;;;;44.90;25.60;;;;;;;7.70;82.23;99525.45;463165;1189;108482;-41
2021/10/18 23:13:06;;;;;;;46.40;24.80;;;;;;;7.72;82.30;99524.41;463265;1190;99012;-41
2021/10/18 23:23:13;;;;;;;35.40;22.70;;;;;;;7.76;82.37;99517.89;463107;1190;112262;-40
2021/10/18 23:33:20;;;;;;;42.10;24.70;;;;;;;7.84;82.41;99512.21;463144;1190;108416;-40
2021/10/18 23:43:28;;;;;;;48.60;28.60;;;;;;;7.88;82.48;99514.27;463402;1188;99005;-41
2021/10/18 23:53:36;;;;;;;53.40;30.80;;;;;;;7.89;82.57;99513.88;463309;1190;108561;-40
